Greenview, Missouri
Current Conditions -  °F | °C
As of 10:55 AM on Friday 28 Nov 2014 (Local Time) from KH21 Reporting Station
Clear Clear  
Wind Chill: 52°   Ceiling: Unl
Heat Index: 52°   Visibility: 10mi
Dew Point: 32°   Wind: 13mph
Humidity: 47%   Direction: 190°S
Pressure: 30.05"   Gusts: 23mph
Location:  37.9635°N, 92.7409°W
Report Text: KH21 281655Z AUTO 19011G20KT 160V220 10SM CLR 11/00 A3005 RMK AO2
Loading
Personal Weather Stations






























Interactive Weather Map New forecast layout! Learn more

10-Day Weather Forecast

Advertisements
Track Severe Weather on mobile